Time;durP1;ratioP1;P1;durP2;ratioP2;P2;SDS_P1;SDS_P2;PMS_P1;PMS_P2;Temp;Humidity;BMP_temperature;BMP_pressure;BME280_temperature;BME280_humidity;BME280_pressure;Samples;Min_cycle;Max_cycle;Signal;HPM_P1;HPM_P2
2021/12/04 00:00:22;;;;;;;93.73;41.50;;;6.60;99.90;;;;;;5028586;28;37793;-78
2021/12/04 00:02:52;;;;;;;90.30;42.27;;;6.60;99.90;;;;;;5020175;28;36321;-77
2021/12/04 00:05:19;;;;;;;92.97;40.03;;;6.60;99.90;;;;;;5019176;28;38733;-78
2021/12/04 00:07:45;;;;;;;101.70;41.17;;;6.60;99.90;;;;;;5020225;28;37654;-77
2021/12/04 00:10:21;;;;;;;106.07;43.40;;;6.60;99.90;;;;;;5012853;28;38089;-78
2021/12/04 00:12:47;;;;;;;98.83;42.70;;;6.60;99.90;;;;;;5016458;28;37731;-76
2021/12/04 00:15:14;;;;;;;102.63;45.93;;;6.60;99.90;;;;;;5007311;28;39343;-78
2021/12/04 00:17:40;;;;;;;98.50;43.77;;;6.60;99.90;;;;;;5019106;28;39458;-77
2021/12/04 00:20:08;;;;;;;105.20;44.07;;;6.60;99.90;;;;;;5020482;28;38067;-78
2021/12/04 00:22:34;;;;;;;95.67;44.00;;;6.70;99.90;;;;;;5025733;28;37593;-78
2021/12/04 00:25:00;;;;;;;91.63;44.10;;;6.70;99.90;;;;;;5019610;28;38704;-78
2021/12/04 00:27:26;;;;;;;96.30;43.10;;;6.70;99.90;;;;;;5020613;28;38257;-77
2021/12/04 00:29:52;;;;;;;89.60;42.20;;;6.60;99.90;;;;;;5033855;28;38106;-78
2021/12/04 00:32:28;;;;;;;104.70;44.63;;;6.60;99.90;;;;;;5029568;28;36609;-77
2021/12/04 00:35:06;;;;;;;90.23;40.87;;;6.60;99.90;;;;;;5028090;28;38650;-78
2021/12/04 00:51:02;;;;;;;98.67;40.67;;;6.70;99.90;;;;;;5019723;28;38523;-77
2021/12/04 00:53:28;;;;;;;99.43;41.20;;;6.70;99.90;;;;;;5007208;28;38469;-77
2021/12/04 00:55:54;;;;;;;99.77;40.33;;;6.70;99.90;;;;;;5019625;28;39628;-77
2021/12/04 00:58:20;;;;;;;98.83;41.60;;;6.70;99.90;;;;;;5019910;28;38487;-77
2021/12/04 01:00:46;;;;;;;100.50;40.03;;;6.70;99.90;;;;;;5018262;28;36972;-77
2021/12/04 01:03:12;;;;;;;88.73;39.50;;;6.70;99.90;;;;;;5015965;28;36371;-76
2021/12/04 01:05:40;;;;;;;91.03;37.83;;;6.70;99.90;;;;;;5023287;28;39619;-77
2021/12/04 01:08:06;;;;;;;90.70;37.63;;;6.70;99.90;;;;;;5020090;28;37515;-76
2021/12/04 01:10:32;;;;;;;85.27;36.73;;;6.70;99.90;;;;;;5022149;28;37284;-78
2021/12/04 01:13:01;;;;;;;93.30;38.50;;;6.80;99.90;;;;;;5022848;28;37338;-77
2021/12/04 01:15:28;;;;;;;88.10;35.00;;;6.80;99.90;;;;;;5021158;28;47553;-76
2021/12/04 01:17:54;;;;;;;102.70;39.43;;;6.70;99.90;;;;;;5020796;28;39501;-77
2021/12/04 01:20:20;;;;;;;94.73;37.90;;;6.80;99.90;;;;;;5012090;28;40409;-77
2021/12/04 01:22:47;;;;;;;92.20;38.63;;;6.80;99.90;;;;;;5021869;28;38990;-77
2021/12/04 01:25:13;;;;;;;97.87;39.43;;;6.80;99.90;;;;;;5022973;28;40249;-77
2021/12/04 01:27:39;;;;;;;89.77;38.47;;;6.80;99.90;;;;;;5021889;28;39534;-77
2021/12/04 01:30:07;;;;;;;99.73;39.00;;;6.80;99.90;;;;;;5021437;28;38948;-77
2021/12/04 01:32:34;;;;;;;109.77;42.57;;;6.80;99.90;;;;;;5022867;28;46998;-77
2021/12/04 01:35:00;;;;;;;109.20;41.20;;;6.80;99.90;;;;;;5020911;28;38686;-77
2021/12/04 01:37:26;;;;;;;102.30;40.37;;;6.80;99.90;;;;;;5020796;28;39783;-76
2021/12/04 01:39:52;;;;;;;102.40;40.13;;;6.80;99.90;;;;;;5027087;28;37380;-76
2021/12/04 01:42:20;;;;;;;108.37;41.37;;;6.80;99.90;;;;;;5022090;28;37990;-77
2021/12/04 01:44:48;;;;;;;108.23;39.67;;;6.80;99.90;;;;;;5025970;28;39734;-77
2021/12/04 01:47:16;;;;;;;97.07;39.17;;;6.80;99.90;;;;;;5022511;28;38760;-77
2021/12/04 01:49:43;;;;;;;99.10;39.23;;;6.80;99.90;;;;;;5025102;28;37737;-77
2021/12/04 01:52:09;;;;;;;114.80;40.23;;;6.80;99.90;;;;;;5022364;28;37926;-77
2021/12/04 01:54:36;;;;;;;95.77;37.20;;;6.80;99.90;;;;;;5026887;28;38954;-77
2021/12/04 01:57:03;;;;;;;115.90;42.70;;;6.80;99.90;;;;;;5023653;28;39443;-77
2021/12/04 01:59:30;;;;;;;96.57;37.50;;;6.80;99.90;;;;;;5027119;28;39458;-77
2021/12/04 02:01:57;;;;;;;128.17;48.17;;;6.80;99.90;;;;;;5016363;28;38331;-77
2021/12/04 02:04:24;;;;;;;116.70;43.10;;;6.80;99.90;;;;;;5019754;28;40286;-78
2021/12/04 02:06:50;;;;;;;118.43;43.03;;;6.80;99.90;;;;;;5022557;28;38626;-76
2021/12/04 02:09:16;;;;;;;105.50;41.13;;;6.80;99.90;;;;;;5025232;28;37859;-77
2021/12/04 02:11:42;;;;;;;121.07;43.40;;;6.80;99.90;;;;;;5015871;28;38078;-76
2021/12/04 02:14:08;;;;;;;122.17;42.93;;;6.80;99.90;;;;;;5022069;28;38356;-76
2021/12/04 02:16:34;;;;;;;115.33;43.60;;;6.80;99.90;;;;;;5022862;28;39304;-77
2021/12/04 02:19:00;;;;;;;121.10;45.50;;;6.90;99.90;;;;;;5015426;28;39043;-77
2021/12/04 02:21:26;;;;;;;111.37;44.03;;;6.90;99.90;;;;;;5027694;28;48484;-77
2021/12/04 02:23:53;;;;;;;110.40;43.40;;;6.90;99.90;;;;;;5034668;28;38984;-77
2021/12/04 02:26:19;;;;;;;116.93;45.13;;;6.90;99.90;;;;;;5033748;28;38958;-76
2021/12/04 02:28:46;;;;;;;122.40;43.83;;;6.90;99.90;;;;;;5029926;28;38282;-76
2021/12/04 02:31:12;;;;;;;123.90;47.53;;;6.90;99.90;;;;;;5041135;28;38990;-77
2021/12/04 02:33:38;;;;;;;116.33;44.30;;;6.90;99.90;;;;;;5038844;28;41011;-76
2021/12/04 02:36:06;;;;;;;151.17;47.97;;;6.90;99.90;;;;;;5033461;28;38627;-77
2021/12/04 02:38:34;;;;;;;120.13;42.77;;;6.90;99.90;;;;;;5042282;28;38919;-76
2021/12/04 02:41:01;;;;;;;129.07;43.03;;;6.90;99.90;;;;;;5043452;28;37420;-77
2021/12/04 02:43:32;;;;;;;144.83;47.80;;;6.90;99.90;;;;;;5030899;28;48820;-77
2021/12/04 02:45:58;;;;;;;153.40;47.60;;;6.90;99.90;;;;;;5014019;28;38203;-79
2021/12/04 02:48:24;;;;;;;138.20;47.07;;;6.90;99.90;;;;;;5012868;28;39008;-78
2021/12/04 02:50:50;;;;;;;150.57;48.03;;;6.90;99.90;;;;;;5020456;28;37418;-78
2021/12/04 02:53:17;;;;;;;202.30;51.63;;;6.90;99.90;;;;;;5018941;28;40723;-77
2021/12/04 02:55:43;;;;;;;136.53;46.00;;;7.00;99.90;;;;;;5014259;28;41055;-76
2021/12/04 02:58:10;;;;;;;131.27;44.83;;;7.00;99.90;;;;;;5021876;28;39231;-76
2021/12/04 03:00:41;;;;;;;122.83;44.27;;;7.00;99.90;;;;;;5026172;28;38802;-77
2021/12/04 03:03:07;;;;;;;152.60;45.53;;;7.00;99.90;;;;;;5019714;28;39509;-76
2021/12/04 03:05:33;;;;;;;132.87;44.73;;;7.00;99.90;;;;;;5040923;28;38314;-75
2021/12/04 03:08:01;;;;;;;132.53;43.60;;;7.00;99.90;;;;;;5028321;28;38898;-76
2021/12/04 03:10:27;;;;;;;111.87;41.00;;;7.10;99.90;;;;;;5032506;28;46862;-75
2021/12/04 03:12:54;;;;;;;121.57;43.47;;;7.10;99.90;;;;;;5031072;28;39955;-76
2021/12/04 03:15:21;;;;;;;117.77;41.60;;;7.10;99.90;;;;;;5034655;28;37535;-76
2021/12/04 03:17:48;;;;;;;120.73;43.83;;;7.10;99.90;;;;;;5033555;28;38874;-75
2021/12/04 03:20:14;;;;;;;115.17;42.73;;;7.10;99.90;;;;;;5031147;28;38088;-77
2021/12/04 03:22:41;;;;;;;117.67;43.37;;;7.10;99.90;;;;;;5037401;28;39034;-76
2021/12/04 03:25:08;;;;;;;112.83;43.13;;;7.10;99.90;;;;;;5036867;28;38290;-76
2021/12/04 03:27:34;;;;;;;104.87;40.40;;;7.10;99.90;;;;;;5039391;28;38454;-77
2021/12/04 03:30:13;;;;;;;131.07;44.07;;;7.10;99.90;;;;;;5040686;28;38968;-77
2021/12/04 03:32:57;;;;;;;129.27;45.33;;;7.10;99.90;;;;;;5022371;28;48533;-76
2021/12/04 03:40:00;;;;;;;122.07;44.53;;;7.10;99.90;;;;;;5011753;28;38594;-78
2021/12/04 03:40:59;;;;;;;123.47;42.50;;;7.10;99.90;;;;;;5036823;28;38656;-78
2021/12/04 03:43:26;;;;;;;114.47;41.23;;;7.10;99.90;;;;;;5014528;28;38921;-77
2021/12/04 03:46:00;;;;;;;144.63;48.63;;;7.10;99.90;;;;;;5018524;28;38813;-78
2021/12/04 03:48:49;;;;;;;137.13;44.63;;;7.10;99.90;;;;;;5042567;28;46874;-78
2021/12/04 03:51:14;;;;;;;117.97;44.77;;;7.20;99.90;;;;;;5034464;28;38183;-78
2021/12/04 03:53:40;;;;;;;134.70;46.57;;;7.20;99.90;;;;;;5017442;28;39768;-76
2021/12/04 03:56:06;;;;;;;109.10;43.03;;;7.20;99.90;;;;;;5032128;28;39279;-75
2021/12/04 03:58:33;;;;;;;97.43;39.73;;;7.20;99.90;;;;;;5034633;28;39808;-76
2021/12/04 04:01:00;;;;;;;111.80;43.03;;;7.20;99.90;;;;;;5043097;28;36700;-77
2021/12/04 04:03:27;;;;;;;111.77;42.47;;;7.20;99.90;;;;;;5041605;28;36352;-74
2021/12/04 04:05:54;;;;;;;139.27;43.67;;;7.20;99.90;;;;;;5039188;28;40280;-78
2021/12/04 04:08:21;;;;;;;113.97;41.43;;;7.20;99.90;;;;;;5023630;28;37199;-75
2021/12/04 04:10:49;;;;;;;82.27;35.67;;;7.30;99.90;;;;;;5032753;28;41581;-77
2021/12/04 04:13:16;;;;;;;73.30;33.13;;;7.30;99.90;;;;;;5018502;28;39510;-75
2021/12/04 04:15:42;;;;;;;78.50;32.67;;;7.30;99.90;;;;;;5024300;28;39414;-76
2021/12/04 04:18:08;;;;;;;76.30;31.13;;;7.30;99.90;;;;;;5010293;28;38008;-78
2021/12/04 04:20:35;;;;;;;72.20;30.23;;;7.30;99.90;;;;;;5020234;28;38916;-76
2021/12/04 04:23:02;;;;;;;92.10;34.23;;;7.30;99.90;;;;;;5024151;28;40331;-78
2021/12/04 04:25:28;;;;;;;62.73;28.07;;;7.30;99.90;;;;;;5020325;28;38245;-77
2021/12/04 04:27:54;;;;;;;69.50;28.73;;;7.30;99.90;;;;;;5013140;28;38222;-75
2021/12/04 04:30:20;;;;;;;66.60;31.20;;;7.30;99.90;;;;;;5009180;28;39087;-78
2021/12/04 04:32:49;;;;;;;73.43;31.37;;;7.30;99.90;;;;;;5026163;28;39803;-78
2021/12/04 04:35:17;;;;;;;113.77;36.77;;;7.20;99.90;;;;;;5018991;28;39111;-78
2021/12/04 05:02:05;;;;;;;55.28;28.27;;;7.10;99.90;;;;;;5035271;28;36838;-76
2021/12/04 05:10:34;;;;;;;59.07;27.57;;;7.20;99.90;;;;;;5035902;28;38523;-77
2021/12/04 05:13:03;;;;;;;55.50;26.80;;;7.10;99.90;;;;;;5013265;28;47472;-78
2021/12/04 05:15:44;;;;;;;58.77;26.17;;;7.20;99.90;;;;;;5007695;28;48262;-78
2021/12/04 05:21:06;;;;;;;60.43;25.57;;;7.10;99.90;;;;;;5011290;28;38438;-77
2021/12/04 05:23:35;;;;;;;56.47;26.67;;;7.00;99.90;;;;;;5045214;28;47506;-76
2021/12/04 05:26:03;;;;;;;57.27;26.10;;;7.00;99.90;;;;;;5031718;28;37770;-77
2021/12/04 05:28:29;;;;;;;58.70;26.07;;;7.00;99.90;;;;;;5015257;28;47163;-77
2021/12/04 05:30:56;;;;;;;59.40;24.47;;;6.90;99.90;;;;;;5037183;28;38955;-77
2021/12/04 05:33:23;;;;;;;48.63;23.93;;;6.80;99.90;;;;;;5036714;28;36954;-77
2021/12/04 05:35:49;;;;;;;53.20;24.43;;;6.80;99.90;;;;;;5033036;28;36847;-77
2021/12/04 05:38:17;;;;;;;72.63;27.63;;;6.90;99.90;;;;;;5036930;28;39493;-77
2021/12/04 05:40:44;;;;;;;52.37;24.93;;;6.90;99.90;;;;;;5023015;28;41910;-77
2021/12/04 05:43:11;;;;;;;58.00;25.53;;;6.90;99.90;;;;;;5017947;28;37877;-77
2021/12/04 05:45:52;;;;;;;59.23;26.30;;;6.90;99.90;;;;;;5023076;28;37805;-76
2021/12/04 05:53:28;;;;;;;72.10;27.33;;;6.80;99.90;;;;;;5016476;28;38618;-76
2021/12/04 05:55:55;;;;;;;68.60;26.03;;;6.70;99.90;;;;;;5010463;28;37079;-77
2021/12/04 05:58:30;;;;;;;58.43;24.23;;;6.70;99.90;;;;;;5013229;28;38986;-77
2021/12/04 06:01:00;;;;;;;60.83;25.43;;;6.70;99.90;;;;;;5010938;28;37980;-77
2021/12/04 06:06:04;;;;;;;71.77;24.70;;;6.70;99.90;;;;;;3041265;22;20061;-73
2021/12/04 06:08:30;;;;;;;68.53;23.17;;;6.70;99.90;;;;;;4962133;28;37928;-72
2021/12/04 06:10:56;;;;;;;64.57;23.47;;;6.70;99.90;;;;;;4976356;28;39439;-73
2021/12/04 06:13:23;;;;;;;68.23;23.40;;;6.60;99.90;;;;;;4978523;28;36604;-72
2021/12/04 06:15:51;;;;;;;82.10;24.20;;;6.60;99.90;;;;;;4980559;28;38705;-73
2021/12/04 06:18:17;;;;;;;55.60;21.30;;;6.60;99.90;;;;;;4977241;28;39390;-72
2021/12/04 06:23:30;;;;;;;48.17;19.90;;;6.60;99.90;;;;;;4976652;28;49152;-73
2021/12/04 06:25:56;;;;;;;49.10;20.47;;;6.60;99.90;;;;;;4978115;28;39574;-72
2021/12/04 06:28:22;;;;;;;93.70;24.07;;;6.60;99.90;;;;;;4972083;28;38043;-72
2021/12/04 06:30:48;;;;;;;50.27;19.90;;;6.70;99.90;;;;;;4975600;28;38779;-72
2021/12/04 06:33:18;;;;;;;49.73;18.50;;;6.70;99.90;;;;;;4975169;28;37397;-73
2021/12/04 06:35:46;;;;;;;42.37;17.90;;;6.70;99.90;;;;;;4976871;28;38675;-72
2021/12/04 06:38:17;;;;;;;47.07;17.67;;;6.70;99.90;;;;;;4979056;28;39995;-73
2021/12/04 06:40:44;;;;;;;30.73;16.13;;;6.60;99.90;;;;;;4966202;28;37022;-73
2021/12/04 06:43:11;;;;;;;45.90;18.60;;;6.60;99.90;;;;;;4960565;28;37390;-72
2021/12/04 06:45:41;;;;;;;42.43;18.73;;;6.60;99.90;;;;;;4972945;28;39640;-72
2021/12/04 06:48:31;;;;;;;65.77;19.87;;;6.60;99.90;;;;;;4964356;28;38602;-71
2021/12/04 06:51:03;;;;;;;47.10;18.67;;;6.70;99.90;;;;;;4983101;28;37727;-73
2021/12/04 06:53:37;;;;;;;63.47;20.10;;;6.70;99.90;;;;;;4965530;28;47097;-72
2021/12/04 06:56:05;;;;;;;37.30;17.80;;;6.70;99.90;;;;;;4979426;28;39767;-73
2021/12/04 06:58:32;;;;;;;42.13;19.30;;;6.70;99.90;;;;;;4977580;28;37541;-72
2021/12/04 07:00:58;;;;;;;47.50;19.23;;;6.70;99.90;;;;;;4965448;28;40263;-72
2021/12/04 07:03:25;;;;;;;39.90;18.10;;;6.70;99.90;;;;;;4972382;28;36280;-73
2021/12/04 07:05:51;;;;;;;44.27;19.23;;;6.60;99.90;;;;;;4984568;28;39872;-72
2021/12/04 07:08:17;;;;;;;43.73;19.90;;;6.70;99.90;;;;;;4967462;28;37809;-72
2021/12/04 07:10:43;;;;;;;43.07;19.17;;;6.70;99.90;;;;;;4981288;28;37907;-73
2021/12/04 07:13:10;;;;;;;48.37;19.10;;;6.70;99.90;;;;;;4966512;28;36166;-73
2021/12/04 07:15:36;;;;;;;48.50;19.97;;;6.70;99.90;;;;;;4980692;28;38661;-73
2021/12/04 07:18:03;;;;;;;38.20;19.10;;;6.70;99.90;;;;;;4989053;28;39398;-72
2021/12/04 07:20:30;;;;;;;49.47;20.40;;;6.70;99.90;;;;;;4975060;28;38937;-72
2021/12/04 07:22:56;;;;;;;60.10;22.77;;;6.70;99.90;;;;;;4970059;28;37059;-73
2021/12/04 07:25:23;;;;;;;62.47;23.30;;;6.70;99.90;;;;;;4979108;28;37649;-72
2021/12/04 07:27:50;;;;;;;85.10;24.83;;;6.70;99.90;;;;;;4967735;28;37139;-72
2021/12/04 07:30:18;;;;;;;92.67;24.57;;;6.70;99.90;;;;;;4984708;28;38164;-73
2021/12/04 07:32:45;;;;;;;66.27;22.50;;;6.70;99.90;;;;;;4986048;28;36284;-72
2021/12/04 07:35:12;;;;;;;97.93;27.30;;;6.70;99.90;;;;;;4980955;28;38899;-73
2021/12/04 07:37:38;;;;;;;98.30;28.60;;;6.70;99.90;;;;;;4986363;28;38415;-72
2021/12/04 07:40:05;;;;;;;70.17;26.00;;;6.70;99.90;;;;;;4981060;28;41164;-72
2021/12/04 07:42:31;;;;;;;95.10;28.93;;;6.80;99.90;;;;;;4984801;28;48223;-71
2021/12/04 07:44:59;;;;;;;85.87;29.40;;;6.70;99.90;;;;;;4991392;28;38685;-72
2021/12/04 07:47:26;;;;;;;72.67;28.87;;;6.70;99.90;;;;;;4983540;28;39180;-72
2021/12/04 07:49:53;;;;;;;82.60;30.00;;;6.70;99.90;;;;;;4967917;28;37911;-72
2021/12/04 07:52:19;;;;;;;85.37;30.50;;;6.80;99.90;;;;;;4987290;28;37276;-73
2021/12/04 07:54:46;;;;;;;81.07;29.90;;;6.80;99.90;;;;;;4987012;28;38700;-72
2021/12/04 07:57:12;;;;;;;81.33;28.27;;;6.80;99.90;;;;;;4984193;28;39520;-73
2021/12/04 07:59:38;;;;;;;70.70;28.77;;;6.80;99.90;;;;;;4987741;28;38224;-72
2021/12/04 08:02:04;;;;;;;101.93;30.40;;;6.80;99.90;;;;;;4981484;28;37771;-72
2021/12/04 08:04:30;;;;;;;100.87;30.83;;;6.80;99.90;;;;;;4991246;28;40436;-73
2021/12/04 08:06:56;;;;;;;108.93;33.87;;;6.90;99.90;;;;;;4983396;28;38334;-72
2021/12/04 08:09:22;;;;;;;80.77;30.50;;;6.90;99.90;;;;;;4980376;28;39906;-72
2021/12/04 08:11:50;;;;;;;82.43;32.73;;;6.90;99.90;;;;;;4981217;28;36878;-72
2021/12/04 08:14:19;;;;;;;94.70;32.90;;;7.00;99.90;;;;;;4970087;28;39777;-73
2021/12/04 08:16:49;;;;;;;92.93;31.07;;;7.00;99.90;;;;;;4979334;28;38543;-73
2021/12/04 08:19:15;;;;;;;102.60;36.03;;;7.00;99.90;;;;;;4970740;28;38758;-72
2021/12/04 08:21:41;;;;;;;106.83;35.40;;;7.00;99.90;;;;;;4961858;28;37391;-72
2021/12/04 08:24:08;;;;;;;109.13;34.23;;;7.00;99.90;;;;;;4980040;28;39582;-72
2021/12/04 08:26:36;;;;;;;124.23;36.30;;;7.00;99.90;;;;;;4986903;28;39096;-72
2021/12/04 08:29:02;;;;;;;111.97;35.40;;;7.10;99.90;;;;;;4986600;28;38360;-72
2021/12/04 08:31:29;;;;;;;97.53;34.70;;;7.10;99.90;;;;;;4986064;28;47172;-72
2021/12/04 08:33:55;;;;;;;108.73;38.07;;;7.10;99.90;;;;;;5003872;28;39931;-72
2021/12/04 08:36:21;;;;;;;102.57;36.47;;;7.10;99.90;;;;;;4984054;28;38855;-72
2021/12/04 08:38:48;;;;;;;111.33;37.93;;;7.20;99.90;;;;;;4982311;28;38075;-72
2021/12/04 08:41:17;;;;;;;115.67;38.10;;;7.20;99.90;;;;;;4981822;28;38238;-72
2021/12/04 08:43:43;;;;;;;106.60;37.70;;;7.20;99.90;;;;;;4984441;28;38616;-73
2021/12/04 08:46:10;;;;;;;99.20;35.50;;;7.20;99.90;;;;;;4987191;28;39445;-73
2021/12/04 08:48:36;;;;;;;103.67;37.30;;;7.20;99.90;;;;;;4986669;28;37973;-72
2021/12/04 08:51:06;;;;;;;110.13;36.40;;;7.30;99.90;;;;;;4984798;28;38007;-70
2021/12/04 08:53:32;;;;;;;110.53;38.50;;;7.30;99.90;;;;;;4985651;28;39497;-73
2021/12/04 08:55:58;;;;;;;111.97;38.63;;;7.30;99.90;;;;;;4987310;28;38604;-70
2021/12/04 08:58:24;;;;;;;134.10;40.23;;;7.30;99.90;;;;;;4982461;28;39120;-72
2021/12/04 09:00:59;;;;;;;139.43;40.53;;;7.30;99.90;;;;;;4985528;28;37988;-71
2021/12/04 09:03:34;;;;;;;108.57;38.60;;;7.30;99.90;;;;;;4986096;28;39534;-71
2021/12/04 09:06:01;;;;;;;121.33;38.63;;;7.40;99.90;;;;;;4983430;28;38570;-72
2021/12/04 09:08:29;;;;;;;141.30;40.97;;;7.40;99.90;;;;;;4986809;28;48854;-72
2021/12/04 09:11:01;;;;;;;123.23;40.17;;;7.40;99.90;;;;;;4985077;28;20078;-72
2021/12/04 09:13:29;;;;;;;129.67;41.37;;;7.40;99.90;;;;;;4984204;28;47195;-72
2021/12/04 09:15:57;;;;;;;130.80;40.00;;;7.40;99.90;;;;;;4979129;28;38488;-72
2021/12/04 09:18:24;;;;;;;150.80;43.13;;;7.40;99.90;;;;;;4980022;28;38201;-72
2021/12/04 09:20:53;;;;;;;159.20;43.03;;;7.40;99.90;;;;;;4996075;28;38029;-72
2021/12/04 09:23:20;;;;;;;134.73;39.73;;;7.40;99.90;;;;;;4985615;28;38888;-72
2021/12/04 09:25:51;;;;;;;133.90;40.37;;;7.40;99.90;;;;;;4967303;28;38628;-72
2021/12/04 09:31:39;;;;;;;129.43;38.00;;;7.40;99.90;;;;;;4987344;28;38745;-72
2021/12/04 09:36:59;;;;;;;106.30;36.73;;;7.40;99.90;;;;;;4970829;28;49304;-72
2021/12/04 10:12:49;;;;;;;148.13;41.63;;;7.50;99.90;;;;;;4981438;28;38807;-74
2021/12/04 10:18:08;;;;;;;136.33;41.40;;;7.50;99.90;;;;;;4978800;28;39726;-72
2021/12/04 10:34:54;;;;;;;133.73;37.57;;;7.60;99.90;;;;;;4983199;28;38424;-72
2021/12/04 10:37:25;;;;;;;132.70;39.27;;;7.60;99.90;;;;;;4985562;28;37351;-73
2021/12/04 10:40:03;;;;;;;176.80;43.93;;;7.60;99.90;;;;;;4997886;28;39682;-72
2021/12/04 10:42:45;;;;;;;120.97;39.03;;;7.60;99.90;;;;;;5006341;28;47161;-72
2021/12/04 10:45:12;;;;;;;113.25;37.42;;;7.60;99.90;;;;;;4970367;28;36999;-72
2021/12/04 10:47:48;;;;;;;96.93;34.60;;;7.60;99.90;;;;;;4989509;28;36716;-71
2021/12/04 10:52:55;;;;;;;118.68;37.03;;;7.60;99.90;;;;;;4992020;28;38912;-72
2021/12/04 11:01:18;;;;;;;131.20;39.47;;;7.60;99.90;;;;;;4991218;28;39933;-72
2021/12/04 11:25:37;;;;;;;154.48;47.30;;;7.70;99.90;;;;;;4979043;28;39447;-71
2021/12/04 11:36:20;;;;;;;139.67;42.73;;;7.70;99.90;;;;;;4990650;28;39376;-72
2021/12/04 11:38:55;;;;;;;129.87;42.63;;;7.70;99.90;;;;;;4990738;28;38470;-72
2021/12/04 11:46:25;;;;;;;114.60;38.23;;;7.70;99.90;;;;;;4985131;28;39025;-72
2021/12/04 11:48:52;;;;;;;98.77;33.17;;;7.80;99.90;;;;;;4984963;28;38766;-72
2021/12/04 11:51:22;;;;;;;93.50;31.30;;;7.80;99.90;;;;;;4978869;28;37302;-72
2021/12/04 11:53:52;;;;;;;63.43;25.30;;;7.80;99.90;;;;;;4981221;28;38609;-71
2021/12/04 11:56:26;;;;;;;54.07;23.47;;;7.80;99.90;;;;;;4977183;28;39426;-72
2021/12/04 11:58:53;;;;;;;54.03;23.30;;;7.70;99.90;;;;;;4994503;28;37770;-72
2021/12/04 12:01:28;;;;;;;51.10;22.47;;;7.70;99.90;;;;;;4982717;28;37256;-72
2021/12/04 12:03:58;;;;;;;45.23;21.50;;;7.80;99.90;;;;;;4980067;28;38541;-72
2021/12/04 12:06:39;;;;;;;42.50;21.07;;;7.70;99.90;;;;;;4989423;28;38646;-72
2021/12/04 12:09:25;;;;;;;41.37;19.87;;;7.70;99.90;;;;;;4985670;28;37236;-72
2021/12/04 12:11:59;;;;;;;48.07;21.33;;;7.70;99.90;;;;;;4984742;28;37307;-72
2021/12/04 12:14:51;;;;;;;48.43;21.37;;;7.70;99.90;;;;;;4984078;28;37675;-73
2021/12/04 12:17:30;;;;;;;50.83;22.93;;;7.70;99.90;;;;;;4985562;28;38207;-73
2021/12/04 12:19:57;;;;;;;53.50;22.53;;;7.70;99.90;;;;;;4982515;28;38867;-74
2021/12/04 12:34:06;;;;;;;50.60;21.23;;;7.80;99.90;;;;;;4991610;28;36859;-72
2021/12/04 12:36:33;;;;;;;50.90;20.27;;;7.80;99.90;;;;;;4987499;28;48953;-73
2021/12/04 12:39:06;;;;;;;49.87;21.00;;;7.90;99.90;;;;;;4997153;28;38698;-73
2021/12/04 12:41:42;;;;;;;55.75;21.52;;;7.90;99.90;;;;;;4987527;28;47448;-72
2021/12/04 12:44:12;;;;;;;48.03;20.20;;;8.00;99.90;;;;;;4998627;28;38101;-72
2021/12/04 12:46:44;;;;;;;53.10;19.23;;;8.10;99.90;;;;;;4988861;28;38876;-72
2021/12/04 12:49:26;;;;;;;40.40;18.50;;;8.10;99.90;;;;;;4988374;28;38829;-73
2021/12/04 12:52:03;;;;;;;31.38;14.18;;;8.10;99.90;;;;;;4980530;28;37955;-72
2021/12/04 12:54:40;;;;;;;26.13;9.40;;;8.20;99.90;;;;;;4998953;28;47502;-73
2021/12/04 12:57:09;;;;;;;15.37;5.70;;;8.20;99.90;;;;;;4985409;28;40938;-73
2021/12/04 13:11:35;;;;;;;12.57;4.00;;;8.20;99.90;;;;;;4998100;28;38744;-73
2021/12/04 13:14:11;;;;;;;;;;;8.10;99.90;;;;;;4976274;28;38446;-75
2021/12/04 13:16:37;;;;;;;3.03;0.80;;;8.00;99.90;;;;;;4981583;28;37420;-75
2021/12/04 13:19:08;;;;;;;9.30;0.80;;;8.00;99.90;;;;;;4982489;28;39219;-76
2021/12/04 13:21:38;;;;;;;7.90;1.00;;;8.00;99.90;;;;;;4979517;28;38288;-76
2021/12/04 13:24:06;;;;;;;7.33;1.10;;;8.10;99.90;;;;;;4977856;28;36999;-76
2021/12/04 13:26:37;;;;;;;3.97;0.80;;;8.10;99.90;;;;;;4985143;28;38212;-74
2021/12/04 13:29:06;;;;;;;11.63;1.33;;;8.20;99.90;;;;;;5001151;28;36290;-75
2021/12/04 13:31:37;;;;;;;4.47;1.07;;;8.20;99.90;;;;;;4981342;28;47256;-75
2021/12/04 13:34:05;;;;;;;10.43;1.50;;;8.20;99.90;;;;;;4983674;28;40227;-75
2021/12/04 13:36:32;;;;;;;7.87;1.30;;;8.30;99.90;;;;;;4988536;28;38263;-75
2021/12/04 13:39:03;;;;;;;6.83;1.47;;;8.30;99.90;;;;;;4984351;28;38834;-75
2021/12/04 13:41:30;;;;;;;6.00;0.87;;;8.30;99.90;;;;;;4980837;28;48465;-76
2021/12/04 13:43:58;;;;;;;7.10;1.20;;;8.30;99.90;;;;;;4982049;28;37691;-75
2021/12/04 13:46:24;;;;;;;2.13;0.80;;;8.30;99.90;;;;;;4986603;28;36324;-75
2021/12/04 13:48:58;;;;;;;7.53;1.20;;;8.30;99.90;;;;;;4984956;28;37771;-75
2021/12/04 13:51:24;;;;;;;4.10;0.90;;;8.30;99.90;;;;;;5004039;28;38532;-75
2021/12/04 13:53:51;;;;;;;3.70;1.20;;;8.30;99.90;;;;;;4981921;28;37187;-76
2021/12/04 13:56:22;;;;;;;4.00;1.03;;;8.30;99.90;;;;;;4985081;28;35963;-75
2021/12/04 13:58:59;;;;;;;4.00;0.80;;;8.30;99.90;;;;;;4975458;28;38970;-75
2021/12/04 14:01:28;;;;;;;2.80;1.10;;;8.40;99.90;;;;;;4984426;28;39131;-74
2021/12/04 14:03:56;;;;;;;5.50;1.50;;;8.30;99.90;;;;;;4987547;28;37932;-75
2021/12/04 14:06:22;;;;;;;5.87;1.20;;;8.40;99.90;;;;;;4988829;28;36128;-75
2021/12/04 14:09:03;;;;;;;4.80;1.77;;;8.40;99.90;;;;;;4981407;28;37941;-75
2021/12/04 14:11:40;;;;;;;9.10;2.60;;;8.40;99.90;;;;;;4981524;28;48912;-75
2021/12/04 14:14:11;;;;;;;9.20;3.50;;;8.40;99.90;;;;;;4987886;28;36993;-75
2021/12/04 14:16:37;;;;;;;10.80;2.73;;;8.40;99.90;;;;;;4979861;28;36336;-75
2021/12/04 14:19:15;;;;;;;9.17;2.77;;;8.40;99.90;;;;;;4985788;28;38209;-74
2021/12/04 14:21:50;;;;;;;9.00;2.60;;;8.40;99.90;;;;;;4983899;28;38445;-75
2021/12/04 14:24:24;;;;;;;9.10;2.60;;;8.50;99.90;;;;;;4991723;28;36234;-75
2021/12/04 14:26:59;;;;;;;13.10;4.00;;;8.50;99.90;;;;;;4989382;28;35885;-75
2021/12/04 14:29:31;;;;;;;12.13;2.40;;;8.50;99.90;;;;;;4983511;28;37776;-75
2021/12/04 14:31:57;;;;;;;10.43;2.95;;;8.60;99.90;;;;;;4981449;28;37251;-74
2021/12/04 14:34:26;;;;;;;12.13;2.67;;;8.80;99.90;;;;;;4985099;28;38251;-74
2021/12/04 14:37:14;;;;;;;12.30;2.67;;;9.00;99.90;;;;;;4979859;28;37061;-74
2021/12/04 14:39:47;;;;;;;10.93;3.10;;;9.10;99.90;;;;;;4983099;28;47369;-74
2021/12/04 14:42:17;;;;;;;;;;;9.20;99.90;;;;;;4981626;28;38493;-73
2021/12/04 14:44:55;;;;;;;11.60;2.43;;;9.30;99.90;;;;;;4999219;28;39330;-74
2021/12/04 14:47:22;;;;;;;17.07;2.63;;;9.30;99.90;;;;;;4982915;28;38385;-74
2021/12/04 14:49:51;;;;;;;11.13;2.63;;;9.40;99.90;;;;;;4978702;28;39459;-74
2021/12/04 14:52:19;;;;;;;8.57;2.20;;;9.40;99.90;;;;;;4982309;28;39617;-74
2021/12/04 14:54:46;;;;;;;10.83;3.10;;;9.40;99.90;;;;;;4984178;28;38505;-74
2021/12/04 14:57:16;;;;;;;11.03;1.90;;;9.30;99.90;;;;;;4978641;28;36975;-74
2021/12/04 14:59:43;;;;;;;11.27;1.90;;;9.30;99.90;;;;;;5000731;28;39602;-74
2021/12/04 15:02:27;;;;;;;14.00;2.63;;;9.30;99.90;;;;;;4979794;28;38645;-74
2021/12/04 15:04:53;;;;;;;12.03;2.37;;;9.20;99.90;;;;;;4984958;28;38015;-74
2021/12/04 15:07:22;;;;;;;12.13;2.07;;;9.20;99.90;;;;;;4981130;28;37876;-74
2021/12/04 15:09:49;;;;;;;9.47;1.90;;;9.10;99.90;;;;;;4981010;28;38995;-75
2021/12/04 15:12:34;;;;;;;9.47;1.80;;;9.00;99.90;;;;;;4984415;28;39217;-74
2021/12/04 15:15:06;;;;;;;11.23;1.73;;;8.80;99.90;;;;;;4998032;28;38974;-74
2021/12/04 15:17:34;;;;;;;9.83;1.90;;;8.70;99.90;;;;;;4992540;28;47275;-74
2021/12/04 15:20:03;;;;;;;11.33;2.07;;;8.50;99.90;;;;;;4991930;28;38909;-74
2021/12/04 15:22:34;;;;;;;9.30;1.43;;;8.40;99.90;;;;;;4990090;28;46767;-74
2021/12/04 15:25:04;;;;;;;9.43;1.60;;;8.40;99.90;;;;;;4983587;28;37771;-74
2021/12/04 15:27:31;;;;;;;10.83;1.80;;;8.30;99.90;;;;;;4992040;28;49128;-74
2021/12/04 15:29:59;;;;;;;15.13;2.00;;;8.20;99.90;;;;;;4988758;28;38482;-74
2021/12/04 15:32:28;;;;;;;10.00;1.73;;;8.20;99.90;;;;;;4981966;28;38581;-74
2021/12/04 15:35:13;;;;;;;11.03;2.90;;;8.20;99.90;;;;;;4987267;28;38359;-74
2021/12/04 15:37:52;;;;;;;14.13;2.17;;;8.20;99.90;;;;;;4982852;28;48364;-74
2021/12/04 15:40:35;;;;;;;11.20;2.00;;;8.10;99.90;;;;;;4982407;28;39722;-74
2021/12/04 15:45:36;;;;;;;14.30;2.40;;;8.00;99.90;;;;;;4986070;28;50189;-74
2021/12/04 15:48:52;;;;;;;11.53;1.90;;;8.10;99.90;;;;;;4984999;28;38094;-74
2021/12/04 15:53:30;;;;;;;13.73;1.63;;;8.10;99.90;;;;;;4987937;28;49193;-74
2021/12/04 15:55:57;;;;;;;10.93;1.87;;;8.10;99.90;;;;;;4991393;28;39925;-74